sensor_id;sensor_type;location;lat;lon;timestamp;pressure;altitude;pressure_sealevel;temperature;humidity
34124;BME280;13153;52.316;21.166;2022-12-24T00:02:22;99404.81;;;10.61;66.29
34124;BME280;13153;52.316;21.166;2022-12-24T00:04:48;99404.81;;;10.61;66.53
34124;BME280;13153;52.316;21.166;2022-12-24T00:07:13;99394.28;;;10.61;66.38
34124;BME280;13153;52.316;21.166;2022-12-24T00:09:39;99398.69;;;10.62;66.33
34124;BME280;13153;52.316;21.166;2022-12-24T00:12:05;99393.41;;;10.60;66.26
34124;BME280;13153;52.316;21.166;2022-12-24T00:14:31;99388.97;;;10.56;65.99
34124;BME280;13153;52.316;21.166;2022-12-24T00:16:57;99390.63;;;10.46;65.77
34124;BME280;13153;52.316;21.166;2022-12-24T00:19:23;99410.75;;;10.44;66.38
34124;BME280;13153;52.316;21.166;2022-12-24T00:21:48;99406.38;;;10.45;66.32
34124;BME280;13153;52.316;21.166;2022-12-24T00:24:14;99408.16;;;10.46;66.54
34124;BME280;13153;52.316;21.166;2022-12-24T00:26:40;99403.78;;;10.46;66.43
34124;BME280;13153;52.316;21.166;2022-12-24T00:29:06;99392.44;;;10.50;66.40
34124;BME280;13153;52.316;21.166;2022-12-24T00:31:32;99392.44;;;10.52;66.59
34124;BME280;13153;52.316;21.166;2022-12-24T00:33:57;99389.84;;;10.55;66.64
34124;BME280;13153;52.316;21.166;2022-12-24T00:36:23;99395.09;;;10.55;66.38
34124;BME280;13153;52.316;21.166;2022-12-24T00:38:49;99401.22;;;10.54;66.33
34124;BME280;13153;52.316;21.166;2022-12-24T00:41:15;99402.09;;;10.53;65.95
34124;BME280;13153;52.316;21.166;2022-12-24T00:43:56;99402.03;;;10.48;65.86
34124;BME280;13153;52.316;21.166;2022-12-24T00:46:24;99401.19;;;10.49;66.17
34124;BME280;13153;52.316;21.166;2022-12-24T00:48:51;99395.06;;;10.50;65.97
34124;BME280;13153;52.316;21.166;2022-12-24T00:51:18;99394.16;;;10.48;65.89
34124;BME280;13153;52.316;21.166;2022-12-24T00:53:44;99393.25;;;10.46;66.11
34124;BME280;13153;52.316;21.166;2022-12-24T00:56:10;99393.25;;;10.46;65.91
34124;BME280;13153;52.316;21.166;2022-12-24T00:58:36;99401.16;;;10.46;66.30
34124;BME280;13153;52.316;21.166;2022-12-24T01:01:03;99398.53;;;10.46;66.19
34124;BME280;13153;52.316;21.166;2022-12-24T01:03:29;99397.66;;;10.47;66.36
34124;BME280;13153;52.316;21.166;2022-12-24T01:06:15;99399.44;;;10.50;66.17
34124;BME280;13153;52.316;21.166;2022-12-24T01:08:41;99391.53;;;10.48;66.36
34124;BME280;13153;52.316;21.166;2022-12-24T01:11:10;99389.75;;;10.47;66.27
34124;BME280;13153;52.316;21.166;2022-12-24T01:13:37;99393.22;;;10.43;65.79
34124;BME280;13153;52.316;21.166;2022-12-24T01:16:12;99398.44;;;10.37;65.86
34124;BME280;13153;52.316;21.166;2022-12-24T01:18:39;99389.66;;;10.35;66.41
34124;BME280;13153;52.316;21.166;2022-12-24T01:21:06;99387.03;;;10.35;66.23
34124;BME280;13153;52.316;21.166;2022-12-24T01:23:34;99387.03;;;10.37;66.49
34124;BME280;13153;52.316;21.166;2022-12-24T01:26:04;99389.72;;;10.40;66.35
34124;BME280;13153;52.316;21.166;2022-12-24T01:28:31;99390.56;;;10.42;66.55
34124;BME280;13153;52.316;21.166;2022-12-24T01:30:58;99400.22;;;10.41;66.29
34124;BME280;13153;52.316;21.166;2022-12-24T01:33:27;99413.34;;;10.41;66.20
34124;BME280;13153;52.316;21.166;2022-12-24T01:35:53;99403.75;;;10.43;66.52
34124;BME280;13153;52.316;21.166;2022-12-24T01:38:19;99402.00;;;10.45;66.40
34124;BME280;13153;52.316;21.166;2022-12-24T01:40:45;99395.00;;;10.44;66.23
34124;BME280;13153;52.316;21.166;2022-12-24T01:43:32;99396.75;;;10.45;66.25
34124;BME280;13153;52.316;21.166;2022-12-24T01:46:03;99397.66;;;10.47;66.09
34124;BME280;13153;52.316;21.166;2022-12-24T01:48:46;99390.63;;;10.45;65.64
34124;BME280;13153;52.316;21.166;2022-12-24T01:54:02;99391.47;;;10.39;65.80
34124;BME280;13153;52.316;21.166;2022-12-24T01:56:31;99399.34;;;10.42;65.71
34124;BME280;13153;52.316;21.166;2022-12-24T01:59:05;99400.22;;;10.43;65.75
34124;BME280;13153;52.316;21.166;2022-12-24T02:01:32;99392.34;;;10.44;65.71
34124;BME280;13153;52.316;21.166;2022-12-24T02:03:58;99401.13;;;10.45;65.48
34124;BME280;13153;52.316;21.166;2022-12-24T02:06:27;99400.25;;;10.44;65.76
34124;BME280;13153;52.316;21.166;2022-12-24T02:08:54;99399.34;;;10.42;65.46
34124;BME280;13153;52.316;21.166;2022-12-24T02:11:21;99404.63;;;10.44;65.57
34124;BME280;13153;52.316;21.166;2022-12-24T02:13:54;99402.88;;;10.44;65.49
34124;BME280;13153;52.316;21.166;2022-12-24T02:16:46;99406.41;;;10.46;65.58
34124;BME280;13153;52.316;21.166;2022-12-24T02:31:02;99408.09;;;10.38;65.85
34124;BME280;13153;52.316;21.166;2022-12-24T02:36:14;99414.22;;;10.40;66.16
34124;BME280;13153;52.316;21.166;2022-12-24T02:39:27;99418.63;;;10.40;66.16
34124;BME280;13153;52.316;21.166;2022-12-24T02:41:57;99416.00;;;10.40;66.16
34124;BME280;13153;52.316;21.166;2022-12-24T02:44:49;99410.72;;;10.41;66.25
34124;BME280;13153;52.316;21.166;2022-12-24T02:47:17;99407.25;;;10.44;66.17
34124;BME280;13153;52.316;21.166;2022-12-24T02:49:46;99410.78;;;10.46;66.34
34124;BME280;13153;52.316;21.166;2022-12-24T02:52:34;99419.56;;;10.46;66.08
34124;BME280;13153;52.316;21.166;2022-12-24T02:55:38;99407.28;;;10.45;66.17
34124;BME280;13153;52.316;21.166;2022-12-24T03:04:33;99411.63;;;10.43;66.05
34124;BME280;13153;52.316;21.166;2022-12-24T03:07:21;99401.97;;;10.42;66.04
34124;BME280;13153;52.316;21.166;2022-12-24T03:10:47;99415.09;;;10.36;65.99
34124;BME280;13153;52.316;21.166;2022-12-24T03:13:18;99414.19;;;10.34;66.23
34124;BME280;13153;52.316;21.166;2022-12-24T03:15:46;99421.19;;;10.34;66.16
34124;BME280;13153;52.316;21.166;2022-12-24T03:18:16;99420.31;;;10.35;66.16
34124;BME280;13153;52.316;21.166;2022-12-24T03:20:47;99423.81;;;10.32;66.28
34124;BME280;13153;52.316;21.166;2022-12-24T03:23:16;99419.44;;;10.34;66.47
34124;BME280;13153;52.316;21.166;2022-12-24T03:25:43;99426.44;;;10.34;66.36
34124;BME280;13153;52.316;21.166;2022-12-24T03:28:13;99420.34;;;10.36;66.42
34124;BME280;13153;52.316;21.166;2022-12-24T03:30:43;99423.81;;;10.32;66.06
34124;BME280;13153;52.316;21.166;2022-12-24T03:33:11;99427.97;;;10.18;66.27
34124;BME280;13153;52.316;21.166;2022-12-24T03:35:37;99420.81;;;10.06;66.63
34124;BME280;13153;52.316;21.166;2022-12-24T03:38:03;99417.06;;;9.89;66.64
34124;BME280;13153;52.316;21.166;2022-12-24T03:40:30;99417.00;;;9.81;67.38
34124;BME280;13153;52.316;21.166;2022-12-24T03:42:56;99416.09;;;9.82;67.34
34124;BME280;13153;52.316;21.166;2022-12-24T03:45:22;99414.34;;;9.83;67.52
34124;BME280;13153;52.316;21.166;2022-12-24T03:47:47;99416.94;;;9.78;67.62
34124;BME280;13153;52.316;21.166;2022-12-24T03:50:13;99409.97;;;9.80;67.42
34124;BME280;13153;52.316;21.166;2022-12-24T03:52:39;99417.03;;;9.87;67.66
34124;BME280;13153;52.316;21.166;2022-12-24T03:55:05;99421.41;;;9.85;67.61
34124;BME280;13153;52.316;21.166;2022-12-24T03:57:31;99421.38;;;9.84;67.33
34124;BME280;13153;52.316;21.166;2022-12-24T03:59:57;99435.38;;;9.83;67.46
34124;BME280;13153;52.316;21.166;2022-12-24T04:02:23;99422.25;;;9.84;67.84
34124;BME280;13153;52.316;21.166;2022-12-24T04:04:49;99438.00;;;9.81;67.56
34124;BME280;13153;52.316;21.166;2022-12-24T04:07:15;99431.88;;;9.84;68.06
34124;BME280;13153;52.316;21.166;2022-12-24T04:09:41;99425.75;;;9.83;67.79
34124;BME280;13153;52.316;21.166;2022-12-24T04:12:07;99432.75;;;9.84;67.54
34124;BME280;13153;52.316;21.166;2022-12-24T04:14:33;99432.84;;;9.90;67.96
34124;BME280;13153;52.316;21.166;2022-12-24T04:16:59;99427.66;;;9.95;67.36
34124;BME280;13153;52.316;21.166;2022-12-24T04:19:24;99429.34;;;9.90;67.25
34124;BME280;13153;52.316;21.166;2022-12-24T04:21:50;99431.84;;;9.79;67.65
34124;BME280;13153;52.316;21.166;2022-12-24T04:24:16;99423.78;;;9.67;67.73
34124;BME280;13153;52.316;21.166;2022-12-24T04:26:42;99418.44;;;9.59;67.96
34124;BME280;13153;52.316;21.166;2022-12-24T04:29:07;99421.94;;;9.60;68.45
34124;BME280;13153;52.316;21.166;2022-12-24T04:31:33;99414.97;;;9.62;68.46
34124;BME280;13153;52.316;21.166;2022-12-24T04:33:59;99421.09;;;9.63;68.04
34124;BME280;13153;52.316;21.166;2022-12-24T04:36:25;99415.88;;;9.64;68.40
34124;BME280;13153;52.316;21.166;2022-12-24T04:38:51;99420.25;;;9.65;67.71
34124;BME280;13153;52.316;21.166;2022-12-24T04:41:20;99417.69;;;9.68;68.43
34124;BME280;13153;52.316;21.166;2022-12-24T04:43:47;99416.69;;;9.60;68.46
34124;BME280;13153;52.316;21.166;2022-12-24T04:46:17;99417.25;;;9.41;68.61
34124;BME280;13153;52.316;21.166;2022-12-24T04:48:46;99424.31;;;9.45;69.17
34124;BME280;13153;52.316;21.166;2022-12-24T04:51:14;99423.47;;;9.46;68.90
34124;BME280;13153;52.316;21.166;2022-12-24T04:53:42;99426.00;;;9.40;69.15
34124;BME280;13153;52.316;21.166;2022-12-24T04:56:17;99421.59;;;9.39;69.63
34124;BME280;13153;52.316;21.166;2022-12-24T04:58:45;99426.81;;;9.37;69.15
34124;BME280;13153;52.316;21.166;2022-12-24T05:01:20;99431.25;;;9.40;68.95
34124;BME280;13153;52.316;21.166;2022-12-24T05:03:47;99438.22;;;9.38;69.20
34124;BME280;13153;52.316;21.166;2022-12-24T05:06:17;99435.59;;;9.38;69.07
34124;BME280;13153;52.316;21.166;2022-12-24T05:08:43;99444.16;;;9.27;69.06
34124;BME280;13153;52.316;21.166;2022-12-24T05:11:10;99445.75;;;9.16;69.86
34124;BME280;13153;52.316;21.166;2022-12-24T05:13:40;99444.84;;;9.14;70.04
34124;BME280;13153;52.316;21.166;2022-12-24T05:16:07;99438.69;;;9.12;69.98
34124;BME280;13153;52.316;21.166;2022-12-24T05:18:33;99444.78;;;9.10;69.45
34124;BME280;13153;52.316;21.166;2022-12-24T05:20:59;99442.25;;;9.16;69.73
34124;BME280;13153;52.316;21.166;2022-12-24T05:23:25;99432.66;;;9.18;69.74
34124;BME280;13153;52.316;21.166;2022-12-24T05:26:47;99436.13;;;9.15;69.51
34124;BME280;13153;52.316;21.166;2022-12-24T05:29:14;99431.69;;;9.11;69.91
34124;BME280;13153;52.316;21.166;2022-12-24T05:31:42;99438.59;;;9.06;69.94
34124;BME280;13153;52.316;21.166;2022-12-24T05:34:08;99434.25;;;9.08;69.52
34124;BME280;13153;52.316;21.166;2022-12-24T05:36:35;99433.38;;;9.08;69.63
34124;BME280;13153;52.316;21.166;2022-12-24T05:39:01;99436.16;;;9.17;69.68
34124;BME280;13153;52.316;21.166;2022-12-24T05:41:27;99439.38;;;9.01;69.42
34124;BME280;13153;52.316;21.166;2022-12-24T05:43:53;99445.97;;;8.80;70.54
34124;BME280;13153;52.316;21.166;2022-12-24T05:46:21;99450.47;;;8.86;70.22
34124;BME280;13153;52.316;21.166;2022-12-24T05:48:50;99453.22;;;8.93;70.63
34124;BME280;13153;52.316;21.166;2022-12-24T05:51:18;99458.63;;;9.01;70.41
34124;BME280;13153;52.316;21.166;2022-12-24T05:53:45;99453.31;;;8.98;70.37
34124;BME280;13153;52.316;21.166;2022-12-24T05:56:18;99456.88;;;9.02;70.40
34124;BME280;13153;52.316;21.166;2022-12-24T05:58:45;99461.25;;;9.03;70.17
34124;BME280;13153;52.316;21.166;2022-12-24T06:01:12;99454.09;;;8.92;70.27
34124;BME280;13153;52.316;21.166;2022-12-24T06:03:38;99456.81;;;8.99;70.37
34124;BME280;13153;52.316;21.166;2022-12-24T06:06:09;99463.84;;;9.01;69.47
34124;BME280;13153;52.316;21.166;2022-12-24T06:08:37;99461.94;;;8.92;69.85
34124;BME280;13153;52.316;21.166;2022-12-24T06:11:07;99461.94;;;8.92;69.74
34124;BME280;13153;52.316;21.166;2022-12-24T06:13:33;99458.53;;;8.97;70.31
34124;BME280;13153;52.316;21.166;2022-12-24T06:16:05;99469.72;;;8.86;70.04
34124;BME280;13153;52.316;21.166;2022-12-24T06:18:34;99459.13;;;8.82;70.42
34124;BME280;13153;52.316;21.166;2022-12-24T06:21:00;99467.84;;;8.81;70.26
34124;BME280;13153;52.316;21.166;2022-12-24T06:23:30;99472.09;;;8.74;69.99
34124;BME280;13153;52.316;21.166;2022-12-24T06:25:58;99473.03;;;8.78;70.15
34124;BME280;13153;52.316;21.166;2022-12-24T06:28:30;99482.69;;;8.79;70.19
34124;BME280;13153;52.316;21.166;2022-12-24T06:30:56;99474.94;;;8.85;70.45
34124;BME280;13153;52.316;21.166;2022-12-24T06:33:22;99482.00;;;8.89;70.29
34124;BME280;13153;52.316;21.166;2022-12-24T06:35:48;99479.44;;;8.92;70.16
34124;BME280;13153;52.316;21.166;2022-12-24T06:38:15;99477.53;;;8.85;69.77
34124;BME280;13153;52.316;21.166;2022-12-24T06:40:43;99486.31;;;8.87;69.77
34124;BME280;13153;52.316;21.166;2022-12-24T06:43:10;99492.44;;;8.86;69.65
34124;BME280;13153;52.316;21.166;2022-12-24T06:45:38;99486.94;;;8.74;70.56
34124;BME280;13153;52.316;21.166;2022-12-24T06:48:04;99485.41;;;8.85;70.09
34124;BME280;13153;52.316;21.166;2022-12-24T06:50:32;99494.25;;;8.90;70.40
34124;BME280;13153;52.316;21.166;2022-12-24T06:52:58;99497.41;;;8.72;70.73
34124;BME280;13153;52.316;21.166;2022-12-24T06:55:24;99490.47;;;8.76;70.80
34124;BME280;13153;52.316;21.166;2022-12-24T06:57:50;99498.34;;;8.76;70.69
34124;BME280;13153;52.316;21.166;2022-12-24T07:00:16;99495.94;;;8.86;69.70
34124;BME280;13153;52.316;21.166;2022-12-24T07:02:43;99506.34;;;8.82;69.97
34124;BME280;13153;52.316;21.166;2022-12-24T07:05:11;99508.88;;;8.77;70.07
34124;BME280;13153;52.316;21.166;2022-12-24T07:07:39;99510.47;;;8.69;70.62
34124;BME280;13153;52.316;21.166;2022-12-24T07:10:07;99511.19;;;8.60;70.50
34124;BME280;13153;52.316;21.166;2022-12-24T07:12:33;99514.66;;;8.59;70.89
34124;BME280;13153;52.316;21.166;2022-12-24T07:14:59;99523.28;;;8.54;70.70
34124;BME280;13153;52.316;21.166;2022-12-24T07:17:25;99521.00;;;8.72;70.65
34124;BME280;13153;52.316;21.166;2022-12-24T07:19:50;99523.66;;;8.74;70.36
34124;BME280;13153;52.316;21.166;2022-12-24T07:22:16;99525.38;;;8.72;69.95
34124;BME280;13153;52.316;21.166;2022-12-24T07:24:42;99530.50;;;8.64;70.41
34124;BME280;13153;52.316;21.166;2022-12-24T07:27:08;99525.97;;;8.57;70.16
34124;BME280;13153;52.316;21.166;2022-12-24T07:29:34;99527.00;;;8.67;70.12
34124;BME280;13153;52.316;21.166;2022-12-24T07:32:00;99526.28;;;8.74;69.79
34124;BME280;13153;52.316;21.166;2022-12-24T07:34:26;99530.47;;;8.63;70.22
34124;BME280;13153;52.316;21.166;2022-12-24T07:36:51;99531.34;;;8.63;70.49
34124;BME280;13153;52.316;21.166;2022-12-24T07:39:17;99530.56;;;8.69;70.21
34124;BME280;13153;52.316;21.166;2022-12-24T07:41:43;99539.53;;;8.80;70.21
34124;BME280;13153;52.316;21.166;2022-12-24T07:44:13;99543.09;;;8.83;69.87
34124;BME280;13153;52.316;21.166;2022-12-24T07:46:39;99545.38;;;8.65;70.42
34124;BME280;13153;52.316;21.166;2022-12-24T07:49:05;99548.91;;;8.69;70.68
34124;BME280;13153;52.316;21.166;2022-12-24T07:51:31;99547.09;;;8.65;70.04
34124;BME280;13153;52.316;21.166;2022-12-24T07:53:57;99550.78;;;8.74;70.26
34124;BME280;13153;52.316;21.166;2022-12-24T07:56:23;99558.59;;;8.73;70.42
34124;BME280;13153;52.316;21.166;2022-12-24T07:58:50;99554.00;;;8.59;70.49
34124;BME280;13153;52.316;21.166;2022-12-24T08:01:16;99560.25;;;8.68;70.81
34124;BME280;13153;52.316;21.166;2022-12-24T08:03:43;99567.94;;;8.58;70.35
34124;BME280;13153;52.316;21.166;2022-12-24T08:06:09;99566.34;;;8.67;70.15
34124;BME280;13153;52.316;21.166;2022-12-24T08:08:36;99568.94;;;8.64;70.06
34124;BME280;13153;52.316;21.166;2022-12-24T08:11:05;99574.34;;;8.73;70.39
34124;BME280;13153;52.316;21.166;2022-12-24T08:13:32;99567.25;;;8.69;69.88
34124;BME280;13153;52.316;21.166;2022-12-24T08:15:58;99563.84;;;8.73;70.13
34124;BME280;13153;52.316;21.166;2022-12-24T08:18:24;99568.94;;;8.64;70.59
34124;BME280;13153;52.316;21.166;2022-12-24T08:20:50;99565.44;;;8.63;70.61
34124;BME280;13153;52.316;21.166;2022-12-24T08:23:17;99565.41;;;8.62;70.90
34124;BME280;13153;52.316;21.166;2022-12-24T08:25:45;99568.03;;;8.62;70.63
34124;BME280;13153;52.316;21.166;2022-12-24T08:28:13;99572.47;;;8.66;70.38
34124;BME280;13153;52.316;21.166;2022-12-24T08:30:41;99575.09;;;8.67;70.43
34124;BME280;13153;52.316;21.166;2022-12-24T08:33:07;99577.72;;;8.67;70.55
34124;BME280;13153;52.316;21.166;2022-12-24T08:35:33;99579.31;;;8.59;70.79
34124;BME280;13153;52.316;21.166;2022-12-24T08:37:59;99578.34;;;8.54;70.45
34124;BME280;13153;52.316;21.166;2022-12-24T08:40:25;99589.75;;;8.56;71.08
34124;BME280;13153;52.316;21.166;2022-12-24T08:42:51;99583.84;;;8.66;70.68
34124;BME280;13153;52.316;21.166;2022-12-24T08:45:17;99593.63;;;8.75;70.25
34124;BME280;13153;52.316;21.166;2022-12-24T08:47:43;99598.03;;;8.77;70.57
34124;BME280;13153;52.316;21.166;2022-12-24T08:50:10;99603.28;;;8.77;70.24
34124;BME280;13153;52.316;21.166;2022-12-24T08:52:36;99601.22;;;8.61;70.54
34124;BME280;13153;52.316;21.166;2022-12-24T08:55:03;99607.41;;;8.65;70.66
34124;BME280;13153;52.316;21.166;2022-12-24T08:57:29;99608.19;;;8.60;70.43
34124;BME280;13153;52.316;21.166;2022-12-24T08:59:55;99612.81;;;8.74;70.59
34124;BME280;13153;52.316;21.166;2022-12-24T09:02:21;99618.09;;;8.75;70.27
34124;BME280;13153;52.316;21.166;2022-12-24T09:04:48;99616.56;;;8.85;69.90
34124;BME280;13153;52.316;21.166;2022-12-24T09:07:13;99610.56;;;8.90;69.62
34124;BME280;13153;52.316;21.166;2022-12-24T09:09:39;99623.59;;;8.86;69.66
34124;BME280;13153;52.316;21.166;2022-12-24T09:12:06;99619.78;;;8.72;70.32
34124;BME280;13153;52.316;21.166;2022-12-24T09:14:33;99624.31;;;8.79;70.09
34124;BME280;13153;52.316;21.166;2022-12-24T09:16:59;99622.44;;;8.73;70.22
34124;BME280;13153;52.316;21.166;2022-12-24T09:19:26;99620.94;;;8.84;69.69
34124;BME280;13153;52.316;21.166;2022-12-24T09:21:52;99620.66;;;8.72;69.96
34124;BME280;13153;52.316;21.166;2022-12-24T09:24:18;99631.38;;;8.83;69.58
34124;BME280;13153;52.316;21.166;2022-12-24T09:26:44;99621.94;;;8.91;69.70
34124;BME280;13153;52.316;21.166;2022-12-24T09:29:14;99628.81;;;8.86;70.10
34124;BME280;13153;52.316;21.166;2022-12-24T09:31:41;99618.97;;;8.74;70.34
34124;BME280;13153;52.316;21.166;2022-12-24T09:34:07;99622.50;;;8.76;70.10
34124;BME280;13153;52.316;21.166;2022-12-24T09:36:34;99627.69;;;8.73;70.16
34124;BME280;13153;52.316;21.166;2022-12-24T09:39:00;99633.81;;;8.74;70.38
34124;BME280;13153;52.316;21.166;2022-12-24T09:44:49;99641.19;;;8.91;70.02
34124;BME280;13153;52.316;21.166;2022-12-24T09:50:02;99646.19;;;8.81;69.90
34124;BME280;13153;52.316;21.166;2022-12-24T09:52:40;99644.78;;;8.97;69.04
34124;BME280;13153;52.316;21.166;2022-12-24T09:55:52;99650.06;;;8.98;69.23
34124;BME280;13153;52.316;21.166;2022-12-24T09:58:44;99644.84;;;8.98;69.13
34124;BME280;13153;52.316;21.166;2022-12-24T10:01:15;99646.66;;;9.02;68.92
34124;BME280;13153;52.316;21.166;2022-12-24T10:03:43;99656.13;;;8.96;68.76
34124;BME280;13153;52.316;21.166;2022-12-24T10:06:23;99666.28;;;8.79;69.80
34124;BME280;13153;52.316;21.166;2022-12-24T10:09:12;99669.88;;;8.84;69.44
34124;BME280;13153;52.316;21.166;2022-12-24T10:12:02;99674.03;;;8.74;69.58
34124;BME280;13153;52.316;21.166;2022-12-24T10:20:41;99671.38;;;8.73;69.78
34124;BME280;13153;52.316;21.166;2022-12-24T10:25:59;99675.97;;;8.83;69.23
34124;BME280;13153;52.316;21.166;2022-12-24T10:31:06;99681.50;;;8.95;69.22
34124;BME280;13153;52.316;21.166;2022-12-24T10:33:54;99678.28;;;9.08;68.49
34124;BME280;13153;52.316;21.166;2022-12-24T10:36:27;99689.69;;;9.10;68.37
34124;BME280;13153;52.316;21.166;2022-12-24T10:38:54;99683.50;;;9.07;68.66
34124;BME280;13153;52.316;21.166;2022-12-24T10:41:21;99695.81;;;9.11;69.04
34124;BME280;13153;52.316;21.166;2022-12-24T10:43:48;99702.72;;;9.06;68.75
34124;BME280;13153;52.316;21.166;2022-12-24T10:46:27;99702.75;;;9.07;69.34
34124;BME280;13153;52.316;21.166;2022-12-24T10:49:01;99695.91;;;9.14;69.08
34124;BME280;13153;52.316;21.166;2022-12-24T10:54:14;99709.97;;;9.17;68.15
34124;BME280;13153;52.316;21.166;2022-12-24T10:56:46;99708.91;;;9.09;68.61
34124;BME280;13153;52.316;21.166;2022-12-24T10:59:52;99707.28;;;9.14;68.27
34124;BME280;13153;52.316;21.166;2022-12-24T11:02:37;99714.47;;;9.23;68.76
34124;BME280;13153;52.316;21.166;2022-12-24T11:05:31;99716.22;;;9.24;68.16
34124;BME280;13153;52.316;21.166;2022-12-24T11:08:24;99715.94;;;9.10;68.60
34124;BME280;13153;52.316;21.166;2022-12-24T11:11:16;99715.78;;;9.03;68.52
34124;BME280;13153;52.316;21.166;2022-12-24T11:13:55;99724.75;;;9.14;68.59
34124;BME280;13153;52.316;21.166;2022-12-24T11:16:28;99729.06;;;9.10;69.17
34124;BME280;13153;52.316;21.166;2022-12-24T11:18:58;99722.25;;;9.18;68.77
34124;BME280;13153;52.316;21.166;2022-12-24T11:21:30;99724.16;;;9.28;68.40
34124;BME280;13153;52.316;21.166;2022-12-24T11:26:41;99723.09;;;9.17;67.98
34124;BME280;13153;52.316;21.166;2022-12-24T11:29:26;99724.69;;;9.11;68.27
34124;BME280;13153;52.316;21.166;2022-12-24T11:32:18;99728.13;;;9.08;68.52
34124;BME280;13153;52.316;21.166;2022-12-24T11:34:44;99730.97;;;9.17;68.10
34124;BME280;13153;52.316;21.166;2022-12-24T11:37:21;99737.81;;;9.11;68.39
34124;BME280;13153;52.316;21.166;2022-12-24T11:39:54;99741.19;;;9.05;68.54
34124;BME280;13153;52.316;21.166;2022-12-24T11:42:35;99742.63;;;8.91;68.97
34124;BME280;13153;52.316;21.166;2022-12-24T11:45:23;99747.28;;;9.04;68.32
34124;BME280;13153;52.316;21.166;2022-12-24T11:47:51;99747.09;;;8.95;68.70
34124;BME280;13153;52.316;21.166;2022-12-24T11:50:31;99746.56;;;9.11;68.63
34124;BME280;13153;52.316;21.166;2022-12-24T11:55:44;99757.13;;;9.14;68.79
34124;BME280;13153;52.316;21.166;2022-12-24T11:58:45;99757.44;;;9.30;68.12
34124;BME280;13153;52.316;21.166;2022-12-24T12:01:25;99763.81;;;9.41;68.17
34124;BME280;13153;52.316;21.166;2022-12-24T12:03:59;99762.88;;;9.39;68.29
34124;BME280;13153;52.316;21.166;2022-12-24T12:06:42;99766.50;;;9.44;67.45
34124;BME280;13153;52.316;21.166;2022-12-24T12:09:32;99775.97;;;9.37;67.55
34124;BME280;13153;52.316;21.166;2022-12-24T12:12:08;99768.94;;;9.35;67.71
34124;BME280;13153;52.316;21.166;2022-12-24T12:14:53;99785.44;;;9.29;67.40
34124;BME280;13153;52.316;21.166;2022-12-24T12:25:54;99795.97;;;9.31;67.93
34124;BME280;13153;52.316;21.166;2022-12-24T12:28:35;99789.72;;;9.24;67.86
34124;BME280;13153;52.316;21.166;2022-12-24T12:31:14;99798.53;;;9.27;67.95
34124;BME280;13153;52.316;21.166;2022-12-24T12:36:27;99804.75;;;9.33;67.40
34124;BME280;13153;52.316;21.166;2022-12-24T12:38:55;99819.69;;;9.35;67.64
34124;BME280;13153;52.316;21.166;2022-12-24T12:51:14;99843.03;;;9.21;67.72
34124;BME280;13153;52.316;21.166;2022-12-24T12:54:29;99851.00;;;9.26;67.37
34124;BME280;13153;52.316;21.166;2022-12-24T12:57:06;99846.63;;;9.26;67.39
34124;BME280;13153;52.316;21.166;2022-12-24T13:00:03;99862.50;;;9.33;67.05
34124;BME280;13153;52.316;21.166;2022-12-24T13:11:26;99888.50;;;9.20;66.75
34124;BME280;13153;52.316;21.166;2022-12-24T13:14:08;99885.63;;;9.10;67.13
34124;BME280;13153;52.316;21.166;2022-12-24T13:22:16;99888.91;;;9.39;66.80
34124;BME280;13153;52.316;21.166;2022-12-24T13:24:54;99895.38;;;9.53;66.96
34124;BME280;13153;52.316;21.166;2022-12-24T13:27:29;99892.72;;;9.51;66.39
34124;BME280;13153;52.316;21.166;2022-12-24T13:32:53;99907.09;;;9.67;66.83
34124;BME280;13153;52.316;21.166;2022-12-24T13:37:49;99921.13;;;9.69;66.69
34124;BME280;13153;52.316;21.166;2022-12-24T13:40:26;99923.66;;;9.65;66.62
34124;BME280;13153;52.316;21.166;2022-12-24T13:53:04;99940.66;;;9.43;66.25
34124;BME280;13153;52.316;21.166;2022-12-24T13:55:32;99946.59;;;9.36;66.30
34124;BME280;13153;52.316;21.166;2022-12-24T13:58:03;99949.25;;;9.37;66.55
34124;BME280;13153;52.316;21.166;2022-12-24T14:00:33;99950.03;;;9.33;66.89
34124;BME280;13153;52.316;21.166;2022-12-24T14:03:20;99954.41;;;9.33;66.79
34124;BME280;13153;52.316;21.166;2022-12-24T14:05:54;99962.97;;;9.24;66.94
34124;BME280;13153;52.316;21.166;2022-12-24T14:11:14;99972.03;;;9.02;66.96
34124;BME280;13153;52.316;21.166;2022-12-24T14:16:21;99976.53;;;8.75;66.79
34124;BME280;13153;52.316;21.166;2022-12-24T14:21:42;99990.53;;;8.75;67.73
34124;BME280;13153;52.316;21.166;2022-12-24T14:24:18;100001.00;;;8.74;67.35
34124;BME280;13153;52.316;21.166;2022-12-24T14:27:20;100013.25;;;8.75;67.33
34124;BME280;13153;52.316;21.166;2022-12-24T14:30:06;100013.44;;;8.81;67.31
34124;BME280;13153;52.316;21.166;2022-12-24T14:32:40;100023.75;;;8.75;67.03
34124;BME280;13153;52.316;21.166;2022-12-24T14:35:15;100028.81;;;8.69;67.37
34124;BME280;13153;52.316;21.166;2022-12-24T14:38:07;100036.63;;;8.66;67.10
34124;BME280;13153;52.316;21.166;2022-12-24T14:41:18;100035.84;;;8.70;67.35
34124;BME280;13153;52.316;21.166;2022-12-24T14:44:09;100043.47;;;8.60;67.73
34124;BME280;13153;52.316;21.166;2022-12-24T14:46:48;100046.31;;;8.38;67.58
34124;BME280;13153;52.316;21.166;2022-12-24T14:54:54;100066.34;;;8.36;68.54
34124;BME280;13153;52.316;21.166;2022-12-24T14:57:23;100067.72;;;8.25;68.21
34124;BME280;13153;52.316;21.166;2022-12-24T14:59:59;100072.22;;;8.29;67.89
34124;BME280;13153;52.316;21.166;2022-12-24T15:02:50;100076.84;;;8.36;68.71
34124;BME280;13153;52.316;21.166;2022-12-24T15:05:17;100072.44;;;8.35;68.54
34124;BME280;13153;52.316;21.166;2022-12-24T15:08:06;100082.06;;;8.36;68.03
34124;BME280;13153;52.316;21.166;2022-12-24T15:10:37;100078.53;;;8.34;67.84
34124;BME280;13153;52.316;21.166;2022-12-24T15:13:19;100081.19;;;8.36;68.34
34124;BME280;13153;52.316;21.166;2022-12-24T15:15:49;100090.03;;;8.39;68.00